Pagrindinis puslapis
METAR-TAF:

METAR-TAF

Oro uostai :

Yüksekova, Turkija

platuma: 37-33-06N, ilguma: 44-14-01E, Aukštis: 1950 m

Dabartinis oras

Ataskaita buvo paskelbta 11 valandos ir 28 minutes, ne 13:50 UTC
Vėjas 12 kt iš Pietvakarių
Temperatūra 17°C
Drėgmė 17%
Slėgis 1023 hPa
Matomumas 10 km arba daugiau
Mažai debesys ne aukštis 4000 ft
Išsisklaidę debesys ne aukštis 10000 ft

METAR: LTCW 311350Z 22012KT 9999 FEW040 SCT100 17/M08 Q1023

Laikas: 04:18 (01:18 UTC)

Prognozė

Ataskaita buvo paskelbta 2 valandos ir 38 minutes, ne 22:40 UTC
Prognozė galioja nuo 01 metu 00 UTC su 01 metu 09 UTC
Vėjas 9 kt iš Rytų/Šiaurės Rytų
Matomumas 10 km arba daugiau
Mažai debesys ne aukštis 4000 ft
Išsisklaidę debesys ne aukštis 10000 ft
Tapsmas
nuo 01 metu 07 UTC su 01 metu 08 UTC
Vėjas 12 kt iš Pietų/Pietvakarių

TAF: LTCW 312240Z 0100/0109 07009KT 9999 FEW040 SCT100 BECMG 0107/0108 21012KT

Orai ataskaitas ir orų prognozės (METAR, TAF).

turimą stotys yra geltonos ir raudonos taškus žemėlapyje.

Perkelti pele per norėdami pamatyti stoties vardą.

Tada spustelėkite, norėdami matyti oro stebėjimo ir prognozės.

Norėdami pakeisti žemėlapį: spustelėkite ant žalios mygtukų su juodo kryžiaus žemyn,; žalią mygtuką su brūkšneliu, jei norite nutolinti; arba žalių rodyklių gretimoms žemėlapius.


METAR-TAF: